createdAt,value
2017-07-25T00:00:16.919Z,97.03
2017-07-25T00:01:16.943Z,96.32
2017-07-25T00:02:17.060Z,95.99
2017-07-25T00:03:16.878Z,97.32
2017-07-25T00:04:16.895Z,97.85
2017-07-25T00:05:17.125Z,97.06
2017-07-25T00:06:16.739Z,97.19
2017-07-25T00:07:16.759Z,97.43
2017-07-25T00:08:16.740Z,99.37
2017-07-25T00:09:16.712Z,98.19
2017-07-25T00:10:16.727Z,98.12
2017-07-25T00:11:16.842Z,97.93
2017-07-25T00:12:16.753Z,98.63
2017-07-25T00:13:16.777Z,98.70
2017-07-25T00:14:17.089Z,98.41
2017-07-25T00:15:16.998Z,99.06
2017-07-25T00:16:16.911Z,98.87
2017-07-25T00:17:16.942Z,99.63
2017-07-25T00:18:16.966Z,99.37
2017-07-25T00:19:16.998Z,99.31
2017-07-25T00:20:16.930Z,99.95
2017-07-25T00:21:17.059Z,99.83
2017-07-25T00:22:16.993Z,99.99
2017-07-25T00:23:17.237Z,99.68
2017-07-25T00:24:16.759Z,98.15
2017-07-25T00:25:16.788Z,99.04
2017-07-25T00:26:16.756Z,97.74
2017-07-25T00:27:16.770Z,97.81
2017-07-25T00:28:16.788Z,97.19
2017-07-25T00:29:16.826Z,97.59
2017-07-25T00:30:16.788Z,98.30
2017-07-25T00:31:17.020Z,98.06
2017-07-25T00:32:17.038Z,97.47
2017-07-25T00:33:16.958Z,97.72
2017-07-25T00:34:16.986Z,98.71
2017-07-25T00:35:17.020Z,97.63
2017-07-25T00:36:17.043Z,97.62
2017-07-25T00:37:16.970Z,97.75
2017-07-25T00:38:16.993Z,98.91
2017-07-25T00:39:17.034Z,98.42
2017-07-25T00:40:17.063Z,97.77
2017-07-25T00:41:16.786Z,97.95
2017-07-25T00:42:16.814Z,97.96
2017-07-25T00:43:16.846Z,98.89
2017-07-25T00:44:16.858Z,98.59
2017-07-25T00:45:16.872Z,98.50
2017-07-25T00:46:16.789Z,98.49
2017-07-25T00:47:16.805Z,98.74
2017-07-25T00:48:17.022Z,98.65
2017-07-25T00:49:16.838Z,98.93
2017-07-25T00:50:17.149Z,97.11
2017-07-25T00:51:17.064Z,97.78
2017-07-25T00:52:16.991Z,97.92
2017-07-25T00:53:17.128Z,99.49
2017-07-25T00:54:17.058Z,99.09
2017-07-25T00:55:17.090Z,99.77
2017-07-25T00:56:17.103Z,97.09
2017-07-25T00:57:17.126Z,98.06
2017-07-25T00:58:16.843Z,97.59
2017-07-25T00:59:16.861Z,97.65
2017-07-25T01:03:10.281Z,99.47
2017-07-25T01:03:11.804Z,98.29
2017-07-25T01:03:12.409Z,98.52
2017-07-25T01:05:49.532Z,97.18
2017-07-25T01:05:50.740Z,99.74
2017-07-25T01:05:51.356Z,98.68
2017-07-25T01:08:33.527Z,99.04
2017-07-25T01:08:34.132Z,98.24
2017-07-25T01:08:34.741Z,99.22
2017-07-25T01:11:40.550Z,98.89
2017-07-25T01:11:41.156Z,99.55
2017-07-25T01:11:41.763Z,100.00
2017-07-25T01:15:09.976Z,99.17
2017-07-25T01:15:11.498Z,99.10
2017-07-25T01:15:12.103Z,98.74
2017-07-25T01:17:47.497Z,99.04
2017-07-25T01:17:48.407Z,99.29
2017-07-25T01:17:49.015Z,97.92
2017-07-25T01:23:18.702Z,98.80
2017-07-25T01:23:19.726Z,98.40
2017-07-25T01:23:20.336Z,97.79
2017-07-25T01:23:20.939Z,98.30
2017-07-25T01:23:21.547Z,98.56
2017-07-25T01:23:22.264Z,98.39
2017-07-25T01:27:07.896Z,98.27
2017-07-25T01:27:09.644Z,98.97
2017-07-25T01:27:10.649Z,99.76
2017-07-25T01:29:57.733Z,98.21
2017-07-25T01:29:58.440Z,97.84
2017-07-25T01:29:59.046Z,98.51
2017-07-25T01:32:33.898Z,98.23
2017-07-25T01:32:34.604Z,98.22
2017-07-25T01:32:35.211Z,97.39
2017-07-25T01:38:38.837Z,97.63
2017-07-25T01:38:39.771Z,98.07
2017-07-25T01:38:40.476Z,98.32
2017-07-25T01:38:41.083Z,99.01
2017-07-25T01:38:41.890Z,98.64
2017-07-25T01:38:42.501Z,99.78
2017-07-25T01:44:10.552Z,100.00
2017-07-25T01:44:11.262Z,98.91
2017-07-25T01:44:11.965Z,99.87
2017-07-25T01:44:12.574Z,99.11
2017-07-25T01:44:13.278Z,98.89
2017-07-25T01:44:16.991Z,98.23
2017-07-25T01:50:11.774Z,98.43
2017-07-25T01:50:12.588Z,98.93
2017-07-25T01:50:13.188Z,99.08
2017-07-25T01:50:13.795Z,99.50
2017-07-25T01:50:14.401Z,99.50
2017-07-25T01:50:17.016Z,99.00
2017-07-25T01:53:43.548Z,98.89
2017-07-25T01:53:44.643Z,99.20
2017-07-25T01:53:45.350Z,98.79
2017-07-25T01:57:04.639Z,98.57
2017-07-25T01:57:05.649Z,98.59
2017-07-25T01:57:06.456Z,98.42
2017-07-25T01:59:41.486Z,99.68
2017-07-25T01:59:42.192Z,98.94
2017-07-25T02:00:12.457Z,98.23
2017-07-25T02:00:17.073Z,98.80
2017-07-25T02:01:17.303Z,98.13
2017-07-25T02:02:17.225Z,97.63
2017-07-25T02:03:17.254Z,96.76
2017-07-25T02:04:17.303Z,98.57
2017-07-25T02:05:17.315Z,98.45
2017-07-25T02:06:17.328Z,98.47
2017-07-25T02:07:17.068Z,97.56
2017-07-25T02:08:17.082Z,98.19
2017-07-25T02:09:17.108Z,97.83
2017-07-25T02:10:17.024Z,98.20
2017-07-25T02:11:17.149Z,97.88
2017-07-25T02:12:17.067Z,97.79
2017-07-25T02:13:17.085Z,97.53
2017-07-25T02:14:17.101Z,98.22
2017-07-25T02:15:17.123Z,98.96
2017-07-25T02:16:17.439Z,98.45
2017-07-25T02:17:17.272Z,98.02
2017-07-25T02:18:17.387Z,99.20
2017-07-25T02:19:17.329Z,97.19
2017-07-25T02:20:17.337Z,97.32
2017-07-25T02:21:17.360Z,97.56
2017-07-25T02:22:17.378Z,98.08
2017-07-25T02:23:17.091Z,99.72
2017-07-25T02:24:17.118Z,99.12
2017-07-25T02:25:17.168Z,98.14
2017-07-25T02:26:17.181Z,98.06
2017-07-25T02:27:17.201Z,98.43
2017-07-25T02:28:17.124Z,98.14
2017-07-25T02:29:17.147Z,98.36
2017-07-25T02:30:17.116Z,97.77
2017-07-25T02:31:17.340Z,99.04
2017-07-25T02:32:17.382Z,99.74
2017-07-25T02:33:17.380Z,98.14
2017-07-25T02:34:17.396Z,98.54
2017-07-25T02:35:17.317Z,98.01
2017-07-25T02:36:17.447Z,98.29
2017-07-25T02:37:17.563Z,98.38
2017-07-25T02:38:17.379Z,98.00
2017-07-25T02:39:17.400Z,97.93
2017-07-25T02:40:17.445Z,97.23
2017-07-25T02:41:17.163Z,98.14
2017-07-25T02:42:17.185Z,98.62
2017-07-25T02:43:17.187Z,98.85
2017-07-25T02:44:17.199Z,98.96
2017-07-25T02:45:17.228Z,98.72
2017-07-25T02:46:17.247Z,98.04
2017-07-25T02:47:17.180Z,98.84
2017-07-25T02:48:17.425Z,98.45
2017-07-25T02:49:17.344Z,99.25
2017-07-25T02:50:17.406Z,98.39
2017-07-25T02:51:17.396Z,98.64
2017-07-25T02:52:17.427Z,98.59
2017-07-25T02:53:17.364Z,97.82
2017-07-25T02:54:17.384Z,98.49
2017-07-25T02:55:17.417Z,98.69
2017-07-25T02:56:17.465Z,98.93
2017-07-25T02:57:17.480Z,99.05
2017-07-25T02:58:17.207Z,98.90
2017-07-25T02:59:17.222Z,98.64
2017-07-25T03:00:17.238Z,99.01
2017-07-25T03:01:17.259Z,98.75
2017-07-25T03:02:17.267Z,98.21
2017-07-25T03:03:17.199Z,98.57
2017-07-25T03:04:17.234Z,99.02
2017-07-25T03:05:17.257Z,99.83
2017-07-25T03:08:07.709Z,99.63
2017-07-25T03:08:08.319Z,99.05
2017-07-25T03:08:17.239Z,97.70
2017-07-25T03:09:17.461Z,98.60
2017-07-25T03:10:17.492Z,97.66
2017-07-25T03:11:17.518Z,97.96
2017-07-25T03:12:17.442Z,97.97
2017-07-25T03:13:17.472Z,98.33
2017-07-25T03:14:17.498Z,99.06
2017-07-25T03:15:17.215Z,99.92
2017-07-25T03:16:17.279Z,99.47
2017-07-25T03:17:17.267Z,99.26
2017-07-25T03:18:17.289Z,99.28
2017-07-25T03:19:17.307Z,99.97
2017-07-25T03:20:17.256Z,99.64
2017-07-25T03:21:17.283Z,99.25
2017-07-25T03:22:17.513Z,99.31
2017-07-25T03:23:17.540Z,99.20
2017-07-25T03:24:17.477Z,99.41
2017-07-25T03:25:17.546Z,98.66
2017-07-25T03:26:17.472Z,98.65
2017-07-25T03:27:17.515Z,99.09
2017-07-25T03:28:17.553Z,99.52
2017-07-25T03:29:17.479Z,99.40
2017-07-25T03:30:17.628Z,99.16
2017-07-25T03:31:17.551Z,99.80
2017-07-25T03:32:17.323Z,99.18
2017-07-25T03:33:17.416Z,99.00
2017-07-25T03:34:17.362Z,99.82
2017-07-25T03:35:17.295Z,99.46
2017-07-25T03:36:17.322Z,100.00
2017-07-25T03:37:17.356Z,100.00
2017-07-25T03:38:17.372Z,100.00
2017-07-25T03:39:17.309Z,100.00
2017-07-25T03:40:17.351Z,99.99
2017-07-25T03:41:17.586Z,100.00
2017-07-25T03:42:17.529Z,100.00
2017-07-25T03:43:17.564Z,100.00
2017-07-25T03:44:17.585Z,100.00
2017-07-25T03:45:17.550Z,99.75
2017-07-25T03:46:17.675Z,99.32
2017-07-25T03:47:17.596Z,100.00
2017-07-25T03:48:17.559Z,99.37
2017-07-25T03:49:17.382Z,99.20
2017-07-25T03:50:17.309Z,99.82
2017-07-25T03:51:17.334Z,99.62
2017-07-25T03:52:17.373Z,99.74
2017-07-25T03:53:17.400Z,100.00
2017-07-25T03:54:17.430Z,99.34
2017-07-25T03:55:17.368Z,99.63
2017-07-25T03:56:17.588Z,100.00
2017-07-25T03:57:17.608Z,100.00
2017-07-25T03:58:17.680Z,99.94
2017-07-25T03:59:17.577Z,99.80
2017-07-25T04:00:17.597Z,98.66
2017-07-25T04:01:17.720Z,99.10
2017-07-25T04:02:17.640Z,98.93
2017-07-25T04:03:17.716Z,99.46
2017-07-25T04:04:17.641Z,99.50
2017-07-25T04:05:17.388Z,99.87
2017-07-25T04:06:17.410Z,100.00
2017-07-25T04:07:17.428Z,99.73
2017-07-25T04:08:17.403Z,99.20
2017-07-25T04:09:17.423Z,99.41
2017-07-25T04:10:17.444Z,99.82
2017-07-25T04:11:17.470Z,99.60
2017-07-25T04:12:17.395Z,99.84
2017-07-25T04:13:17.620Z,98.13
2017-07-25T04:14:17.656Z,99.11
2017-07-25T04:15:17.585Z,100.00
2017-07-25T04:16:17.616Z,99.26
2017-07-25T04:17:17.642Z,99.79
2017-07-25T04:18:17.776Z,100.00
2017-07-25T04:19:17.600Z,98.40
2017-07-25T04:20:17.828Z,98.79
2017-07-25T04:21:17.681Z,98.95
2017-07-25T04:22:17.428Z,99.84
2017-07-25T04:23:17.478Z,100.00
2017-07-25T04:24:17.509Z,99.49
2017-07-25T04:25:17.463Z,99.54
2017-07-25T04:26:17.437Z,99.32
2017-07-25T04:27:17.486Z,99.77
2017-07-25T04:28:17.510Z,100.00
2017-07-25T04:29:17.532Z,98.86
2017-07-25T04:30:17.457Z,100.00
2017-07-25T04:31:17.682Z,99.80
2017-07-25T04:32:17.713Z,99.50
2017-07-25T04:33:17.753Z,100.00
2017-07-25T04:34:17.728Z,100.00
2017-07-25T04:35:17.748Z,99.83
2017-07-25T04:36:17.670Z,100.00
2017-07-25T04:37:17.806Z,98.62
2017-07-25T04:38:17.732Z,99.79
2017-07-25T04:39:17.487Z,99.57
2017-07-25T04:40:17.508Z,99.57
2017-07-25T04:41:17.528Z,99.39
2017-07-25T04:42:17.545Z,99.18
2017-07-25T04:43:17.574Z,99.18
2017-07-25T04:44:17.520Z,98.91
2017-07-25T04:45:17.548Z,99.46
2017-07-25T04:46:17.787Z,100.00
2017-07-25T04:47:17.612Z,99.80
2017-07-25T04:48:17.533Z,99.93
2017-07-25T04:49:17.564Z,99.83
2017-07-25T04:50:17.696Z,100.00
2017-07-25T04:51:17.751Z,99.46
2017-07-25T04:52:17.703Z,99.56
2017-07-25T04:53:17.762Z,99.81
2017-07-25T04:54:17.835Z,99.25
2017-07-25T04:55:17.802Z,100.00
2017-07-25T04:56:17.547Z,99.04
2017-07-25T04:57:17.596Z,98.66
2017-07-25T04:58:17.631Z,98.87
2017-07-25T04:59:17.583Z,98.87
2017-07-25T05:00:17.579Z,98.31
2017-07-25T05:01:17.592Z,99.40
2017-07-25T05:02:17.583Z,98.93
2017-07-25T05:03:17.617Z,98.52
2017-07-25T05:04:17.577Z,100.00
2017-07-25T05:05:17.625Z,99.47
2017-07-25T05:06:17.912Z,99.75
2017-07-25T05:07:17.760Z,99.74
2017-07-25T05:08:17.853Z,99.58
2017-07-25T05:09:17.776Z,99.85
2017-07-25T05:10:17.781Z,99.27
2017-07-25T05:11:17.922Z,99.51
2017-07-25T05:12:17.781Z,99.50
2017-07-25T05:13:17.856Z,100.00
2017-07-25T05:14:17.631Z,99.47
2017-07-25T05:15:17.616Z,100.00
2017-07-25T05:16:17.706Z,99.79
2017-07-25T05:17:17.574Z,99.64
2017-07-25T05:18:17.681Z,100.00
2017-07-25T05:19:17.664Z,100.00
2017-07-25T05:20:17.607Z,99.57
2017-07-25T05:21:17.909Z,99.49
2017-07-25T05:22:17.869Z,100.00
2017-07-25T05:23:17.925Z,100.00
2017-07-25T05:24:17.917Z,99.22
2017-07-25T05:25:21.545Z,100.00
2017-07-25T05:26:17.667Z,100.00
2017-07-25T05:27:17.865Z,100.00
2017-07-25T05:28:17.959Z,99.42
2017-07-25T05:29:17.861Z,98.56
2017-07-25T05:30:17.868Z,99.92
2017-07-25T05:31:17.690Z,99.70
2017-07-25T05:32:17.650Z,99.86
2017-07-25T05:33:17.706Z,100.00
2017-07-25T05:34:17.633Z,99.41
2017-07-25T05:35:17.655Z,98.23
2017-07-25T05:36:17.683Z,98.99
2017-07-25T05:37:17.652Z,97.80
2017-07-25T05:38:18.030Z,98.37
2017-07-25T05:39:17.897Z,97.11
2017-07-25T05:40:17.983Z,96.58
2017-07-25T05:41:17.964Z,97.83
2017-07-25T05:42:17.915Z,97.91
2017-07-25T05:43:18.058Z,98.30
2017-07-25T05:44:17.976Z,96.76
2017-07-25T05:45:17.934Z,97.03
2017-07-25T05:46:17.957Z,96.85
2017-07-25T05:47:17.929Z,96.68
2017-07-25T05:48:17.746Z,97.21
2017-07-25T05:49:17.730Z,97.73
2017-07-25T05:50:17.772Z,97.87
2017-07-25T05:51:17.701Z,97.79
2017-07-25T05:52:17.792Z,97.86
2017-07-25T05:53:17.703Z,97.18
2017-07-25T05:54:17.731Z,97.20
2017-07-25T05:55:17.772Z,97.27
2017-07-25T05:56:17.955Z,97.96
2017-07-25T05:57:17.929Z,98.32
2017-07-25T05:58:18.081Z,98.40
2017-07-25T05:59:17.960Z,98.09
2017-07-25T06:00:17.918Z,98.63
2017-07-25T06:01:18.004Z,97.65
2017-07-25T06:02:17.931Z,98.78
2017-07-25T06:03:18.025Z,98.36
2017-07-25T06:04:18.118Z,97.80
2017-07-25T06:05:17.711Z,97.94
2017-07-25T06:06:17.835Z,97.64
2017-07-25T06:07:17.826Z,98.81
2017-07-25T06:08:17.824Z,98.54
2017-07-25T06:09:17.784Z,99.15
2017-07-25T06:10:17.751Z,98.94
2017-07-25T06:11:17.816Z,98.42
2017-07-25T06:12:17.866Z,97.84
2017-07-25T06:13:17.838Z,98.19
2017-07-25T06:14:18.147Z,97.97
2017-07-25T06:15:18.026Z,97.71
2017-07-25T06:16:18.048Z,97.23
2017-07-25T06:17:18.012Z,97.47
2017-07-25T06:18:18.081Z,96.72
2017-07-25T06:19:18.051Z,96.62
2017-07-25T06:20:17.980Z,95.81
2017-07-25T06:21:18.010Z,95.56
2017-07-25T06:22:18.078Z,96.11
2017-07-25T06:23:17.828Z,97.24
2017-07-25T06:24:17.865Z,97.08
2017-07-25T06:25:17.872Z,97.83
2017-07-25T06:26:17.893Z,98.59
2017-07-25T06:27:17.892Z,97.50
2017-07-25T06:28:17.850Z,97.15
2017-07-25T06:29:17.810Z,96.25
2017-07-25T06:30:17.824Z,96.49
2017-07-25T06:31:18.056Z,96.90
2017-07-25T06:32:18.005Z,97.01
2017-07-25T06:33:18.193Z,97.34
2017-07-25T06:34:18.092Z,97.02
2017-07-25T06:35:18.056Z,97.31
2017-07-25T06:36:18.101Z,97.49
2017-07-25T06:37:18.046Z,97.58
2017-07-25T06:38:18.115Z,97.44
2017-07-25T06:39:17.896Z,96.47
2017-07-25T06:40:17.831Z,97.37
2017-07-25T06:41:17.868Z,97.44
2017-07-25T06:42:17.818Z,97.10
2017-07-25T06:43:17.892Z,96.76
2017-07-25T06:44:17.863Z,96.99
2017-07-25T06:45:17.882Z,96.29
2017-07-25T06:46:17.946Z,96.46
2017-07-25T06:47:17.862Z,95.51
2017-07-25T06:48:18.082Z,95.71
2017-07-25T06:49:18.054Z,96.51
2017-07-25T06:50:18.169Z,95.04
2017-07-25T06:51:18.058Z,96.46
2017-07-25T06:52:18.096Z,96.27
2017-07-25T06:53:18.138Z,95.69
2017-07-25T06:54:18.194Z,96.14
2017-07-25T06:55:18.092Z,95.19
2017-07-25T06:56:17.925Z,96.12
2017-07-25T06:57:17.984Z,97.50
2017-07-25T06:58:17.959Z,98.54
2017-07-25T06:59:17.903Z,98.26
2017-07-25T07:00:17.957Z,97.26
2017-07-25T07:01:17.927Z,96.21
2017-07-25T07:02:17.910Z,95.54
2017-07-25T07:03:17.930Z,95.26
2017-07-25T07:04:18.153Z,95.88
2017-07-25T07:05:18.121Z,96.53
2017-07-25T07:06:18.252Z,97.65
2017-07-25T07:07:18.196Z,96.55
2017-07-25T07:08:18.252Z,96.97
2017-07-25T07:09:18.194Z,97.90
2017-07-25T07:10:18.157Z,97.73
2017-07-25T07:11:18.198Z,97.67
2017-07-25T07:12:18.167Z,97.51
2017-07-25T07:13:18.206Z,97.24
2017-07-25T07:14:17.967Z,97.68
2017-07-25T07:15:18.037Z,97.89
2017-07-25T07:16:17.998Z,97.69
2017-07-25T07:17:17.976Z,97.11
2017-07-25T07:18:18.059Z,96.29
2017-07-25T07:19:18.035Z,96.63
2017-07-25T07:20:17.994Z,97.18
2017-07-25T07:21:17.993Z,98.17
2017-07-25T07:22:18.239Z,97.22
2017-07-25T07:23:18.190Z,98.00
2017-07-25T07:24:18.201Z,97.75
2017-07-25T07:25:18.159Z,98.47
2017-07-25T07:26:18.181Z,98.33
2017-07-25T07:27:18.207Z,97.19
2017-07-25T07:28:18.170Z,97.84
2017-07-25T07:29:18.169Z,98.25
2017-07-25T07:30:18.235Z,99.05
2017-07-25T07:31:18.074Z,97.63
2017-07-25T07:32:18.011Z,97.94
2017-07-25T07:33:18.146Z,98.70
2017-07-25T07:34:18.001Z,98.34
2017-07-25T07:35:18.055Z,97.47
2017-07-25T07:36:18.006Z,98.21
2017-07-25T07:37:17.993Z,98.12
2017-07-25T07:38:17.985Z,95.24
2017-07-25T07:39:18.060Z,96.79
2017-07-25T07:40:18.309Z,97.60
2017-07-25T07:41:18.255Z,98.38
2017-07-25T07:42:18.293Z,96.71
2017-07-25T07:43:18.261Z,98.58
2017-07-25T07:44:18.265Z,98.52
2017-07-25T07:45:18.282Z,98.82
2017-07-25T07:46:18.243Z,97.73
2017-07-25T07:47:18.293Z,97.88
2017-07-25T07:48:18.044Z,98.59
2017-07-25T07:49:18.083Z,98.07
2017-07-25T07:50:18.028Z,98.47
2017-07-25T07:51:18.060Z,98.07
2017-07-25T07:52:18.096Z,97.22
2017-07-25T07:53:18.129Z,97.00
2017-07-25T07:54:18.069Z,96.79
2017-07-25T07:55:18.107Z,96.60
2017-07-25T07:56:18.133Z,97.72
2017-07-25T07:57:18.102Z,97.74
2017-07-25T07:58:18.176Z,96.80
2017-07-25T07:59:18.534Z,97.96
2017-07-25T08:00:18.261Z,97.32
2017-07-25T08:01:18.314Z,96.72
2017-07-25T08:02:18.307Z,96.56
2017-07-25T08:03:18.342Z,96.05
2017-07-25T08:04:18.101Z,96.39
2017-07-25T08:05:18.091Z,97.07
2017-07-25T08:06:18.158Z,96.01
2017-07-25T08:07:18.176Z,96.49
2017-07-25T08:08:18.325Z,97.56
2017-07-25T08:09:18.135Z,97.57
2017-07-25T08:10:18.164Z,97.68
2017-07-25T08:11:18.142Z,95.29
2017-07-25T08:12:18.313Z,96.67
2017-07-25T08:13:18.188Z,97.04
2017-07-25T08:14:18.449Z,97.32
2017-07-25T08:15:18.335Z,96.51
2017-07-25T08:16:18.361Z,94.14
2017-07-25T08:17:18.346Z,94.29
2017-07-25T08:18:18.465Z,94.50
2017-07-25T08:19:18.407Z,95.41
2017-07-25T08:20:18.414Z,95.43
2017-07-25T08:21:18.454Z,93.77
2017-07-25T08:22:18.412Z,93.82
2017-07-25T08:23:18.183Z,95.48
2017-07-25T08:24:18.223Z,96.78
2017-07-25T08:25:18.140Z,96.30
2017-07-25T08:26:18.152Z,95.73
2017-07-25T08:27:18.208Z,95.24
2017-07-25T08:28:18.182Z,95.51
2017-07-25T08:29:18.244Z,96.58
2017-07-25T08:30:18.203Z,96.24
2017-07-25T08:31:18.138Z,96.42
2017-07-25T08:32:18.459Z,95.89
2017-07-25T08:33:18.406Z,95.03
2017-07-25T08:34:18.557Z,95.04
2017-07-25T08:35:18.477Z,95.33
2017-07-25T08:36:18.629Z,95.77
2017-07-25T08:37:18.409Z,96.74
2017-07-25T08:38:18.592Z,96.39
2017-07-25T08:39:18.428Z,97.52
2017-07-25T08:40:18.263Z,94.97
2017-07-25T08:41:18.265Z,95.44
2017-07-25T08:42:18.289Z,95.59
2017-07-25T08:43:18.231Z,95.10
2017-07-25T08:44:18.284Z,95.92
2017-07-25T08:47:12.189Z,96.21
2017-07-25T08:47:18.232Z,94.24
2017-07-25T08:48:18.674Z,93.81
2017-07-25T08:49:18.649Z,95.05
2017-07-25T08:50:18.746Z,94.84
2017-07-25T08:51:19.013Z,95.55
2017-07-25T08:52:18.294Z,95.79
2017-07-25T08:53:18.469Z,94.06
2017-07-25T08:54:18.503Z,95.96
2017-07-25T08:55:18.451Z,96.65
2017-07-25T08:56:18.717Z,96.56
2017-07-25T08:57:18.775Z,96.15
2017-07-25T08:58:18.343Z,96.46
2017-07-25T08:59:18.802Z,95.81
2017-07-25T09:00:18.363Z,95.99
2017-07-25T09:01:18.458Z,96.57
2017-07-25T09:02:18.506Z,96.28
2017-07-25T09:03:18.461Z,95.33
2017-07-25T09:04:19.329Z,94.38
2017-07-25T09:05:18.379Z,95.46
2017-07-25T09:06:18.318Z,96.35
2017-07-25T09:07:18.812Z,93.31
2017-07-25T09:08:18.795Z,94.82
2017-07-25T09:09:18.862Z,95.57
2017-07-25T09:10:18.652Z,94.55
2017-07-25T09:11:18.513Z,92.97
2017-07-25T09:12:18.524Z,92.86
2017-07-25T09:13:18.480Z,93.76
2017-07-25T09:14:18.633Z,95.62
2017-07-25T09:15:18.301Z,96.12
2017-07-25T09:16:18.345Z,96.96
2017-07-25T09:17:18.337Z,96.54
2017-07-25T09:18:18.394Z,94.16
2017-07-25T09:19:18.283Z,95.19
2017-07-25T09:20:18.385Z,96.28
2017-07-25T09:21:18.354Z,95.67
2017-07-25T09:22:18.318Z,96.76
2017-07-25T09:23:18.420Z,95.78
2017-07-25T09:24:18.365Z,96.79
2017-07-25T09:25:18.573Z,96.43
2017-07-25T09:26:18.762Z,96.57
2017-07-25T09:27:18.711Z,96.58
2017-07-25T09:28:18.763Z,95.35
2017-07-25T09:29:18.724Z,96.23
2017-07-25T09:30:19.500Z,97.08
2017-07-25T09:31:18.337Z,96.94
2017-07-25T09:32:20.043Z,97.11
2017-07-25T09:33:18.516Z,97.91
2017-07-25T09:34:19.499Z,98.51
2017-07-25T09:35:18.418Z,97.96
2017-07-25T09:36:19.387Z,96.76
2017-07-25T09:37:18.674Z,96.93
2017-07-25T09:38:19.489Z,96.79
2017-07-25T09:39:18.528Z,98.80
2017-07-25T09:40:19.440Z,98.30
2017-07-25T09:41:18.592Z,97.76
2017-07-25T09:42:18.651Z,97.91
2017-07-25T09:43:18.608Z,98.09
2017-07-25T09:44:18.840Z,97.84
2017-07-25T09:45:19.115Z,98.84
2017-07-25T09:46:19.094Z,98.32
2017-07-25T09:47:19.261Z,99.76
2017-07-25T09:48:19.025Z,98.23
2017-07-25T09:49:18.964Z,97.51
2017-07-25T09:50:18.560Z,99.20
2017-07-25T09:51:18.582Z,98.62
2017-07-25T09:52:18.412Z,99.53
2017-07-25T09:53:19.404Z,98.20
2017-07-25T09:54:19.361Z,98.78
2017-07-25T09:55:19.260Z,99.61
2017-07-25T09:56:18.630Z,99.10
2017-07-25T09:57:19.262Z,98.98
2017-07-25T09:58:18.668Z,98.99
2017-07-25T09:59:18.554Z,99.39
2017-07-25T10:00:18.429Z,98.67
2017-07-25T10:01:18.872Z,98.29
2017-07-25T10:02:18.991Z,98.82
2017-07-25T10:03:18.970Z,100.00
2017-07-25T10:04:19.058Z,100.00
2017-07-25T10:05:19.094Z,100.00
2017-07-25T10:06:19.093Z,100.00
2017-07-25T10:07:18.577Z,100.00
2017-07-25T10:08:18.514Z,100.00
2017-07-25T10:09:18.542Z,100.00
2017-07-25T10:10:19.438Z,99.81
2017-07-25T10:11:18.465Z,99.83
2017-07-25T10:12:19.250Z,99.92
2017-07-25T10:13:18.617Z,100.00
2017-07-25T10:14:18.775Z,100.00
2017-07-25T10:15:18.628Z,100.00
2017-07-25T10:16:18.491Z,100.00
2017-07-25T10:17:19.192Z,100.00
2017-07-25T10:18:19.246Z,100.00
2017-07-25T10:19:19.035Z,100.00
2017-07-25T10:20:18.775Z,100.00
2017-07-25T10:21:18.917Z,100.00
2017-07-25T10:22:18.892Z,99.86
2017-07-25T10:23:18.564Z,99.54
2017-07-25T10:24:18.515Z,99.83
2017-07-25T10:25:18.460Z,100.00
2017-07-25T10:26:18.524Z,100.00
2017-07-25T10:27:18.556Z,100.00
2017-07-25T10:28:18.526Z,100.00
2017-07-25T10:29:18.561Z,99.96
2017-07-25T10:30:18.851Z,100.00
2017-07-25T10:31:18.829Z,100.00
2017-07-25T10:32:18.922Z,99.29
2017-07-25T10:33:18.823Z,99.01
2017-07-25T10:34:18.814Z,100.00
2017-07-25T10:35:18.765Z,100.00
2017-07-25T10:36:18.787Z,99.05
2017-07-25T10:37:18.915Z,99.78
2017-07-25T10:38:18.926Z,100.00
2017-07-25T10:39:18.822Z,99.90
2017-07-25T10:40:18.619Z,100.00
2017-07-25T10:41:18.599Z,99.75
2017-07-25T10:42:18.554Z,99.71
2017-07-25T10:43:18.624Z,99.75
2017-07-25T10:44:18.582Z,99.90
2017-07-25T10:45:18.545Z,99.73
2017-07-25T10:46:18.748Z,100.00
2017-07-25T10:47:18.889Z,99.11
2017-07-25T10:48:18.952Z,98.56
2017-07-25T10:49:18.881Z,98.77
2017-07-25T10:50:18.897Z,99.22
2017-07-25T10:51:19.127Z,100.00
2017-07-25T10:52:19.235Z,99.26
2017-07-25T10:53:19.174Z,97.98
2017-07-25T10:54:19.127Z,98.28
2017-07-25T10:55:18.987Z,97.31
2017-07-25T10:56:19.376Z,98.46
2017-07-25T10:57:19.157Z,97.72
2017-07-25T10:58:18.723Z,97.00
2017-07-25T10:59:18.837Z,97.99
2017-07-25T11:00:18.689Z,97.60
2017-07-25T11:01:18.864Z,98.37
2017-07-25T11:02:18.833Z,98.39
2017-07-25T11:03:18.911Z,98.55
2017-07-25T11:04:18.785Z,98.16
2017-07-25T11:05:18.866Z,97.26
2017-07-25T11:06:18.809Z,98.72
2017-07-25T11:07:18.727Z,98.80
2017-07-25T11:08:18.978Z,97.72
2017-07-25T11:09:19.016Z,97.23
2017-07-25T11:10:19.059Z,96.89
2017-07-25T11:11:19.002Z,97.67
2017-07-25T11:12:19.034Z,97.26
2017-07-25T11:13:18.675Z,98.58
2017-07-25T11:14:18.670Z,97.59
2017-07-25T11:15:18.687Z,97.13
2017-07-25T11:16:18.691Z,98.07
2017-07-25T11:17:18.679Z,96.97
2017-07-25T11:18:18.747Z,97.67
2017-07-25T11:19:18.643Z,96.03
2017-07-25T11:20:18.926Z,96.35
2017-07-25T11:21:18.705Z,97.29
2017-07-25T11:22:18.984Z,97.38
2017-07-25T11:23:18.972Z,96.26
2017-07-25T11:24:19.510Z,95.94
2017-07-25T11:25:18.801Z,96.39
2017-07-25T11:26:18.866Z,97.93
2017-07-25T11:27:19.290Z,96.51
2017-07-25T11:28:19.040Z,96.68
2017-07-25T11:29:19.114Z,96.87
2017-07-25T11:30:19.263Z,97.41
2017-07-25T11:31:19.057Z,97.53
2017-07-25T11:32:18.738Z,98.39
2017-07-25T11:33:18.970Z,97.71
2017-07-25T11:34:18.810Z,98.25
2017-07-25T11:35:18.758Z,98.60
2017-07-25T11:36:18.695Z,97.75
2017-07-25T11:37:18.787Z,98.26
2017-07-25T11:38:18.935Z,97.67
2017-07-25T11:39:18.789Z,97.74
2017-07-25T11:40:18.975Z,99.04
2017-07-25T11:41:18.910Z,98.86
2017-07-25T11:42:19.101Z,98.07
2017-07-25T11:43:18.949Z,97.79
2017-07-25T11:44:19.100Z,99.02
2017-07-25T11:45:18.747Z,99.31
2017-07-25T11:46:18.796Z,99.94
2017-07-25T11:47:18.859Z,99.26
2017-07-25T11:48:18.820Z,97.74
2017-07-25T11:49:18.860Z,97.65
2017-07-25T11:50:18.802Z,97.89
2017-07-25T11:51:18.882Z,98.53
2017-07-25T11:52:18.986Z,97.81
2017-07-25T11:53:18.775Z,98.70
2017-07-25T11:54:19.006Z,98.58
2017-07-25T11:55:19.339Z,98.23
2017-07-25T11:56:19.366Z,97.17
2017-07-25T11:57:19.117Z,97.63
2017-07-25T11:58:19.150Z,98.26
2017-07-25T11:59:19.063Z,96.29
2017-07-25T12:00:19.088Z,95.40
2017-07-25T12:01:19.007Z,94.95
2017-07-25T12:02:18.831Z,95.33
2017-07-25T12:03:18.808Z,95.69
2017-07-25T12:04:18.829Z,95.65
2017-07-25T12:05:18.846Z,96.07
2017-07-25T12:06:18.868Z,97.41
2017-07-25T12:07:18.949Z,96.31
2017-07-25T12:08:18.886Z,96.01
2017-07-25T12:09:18.929Z,96.02
2017-07-25T12:10:18.856Z,95.35
2017-07-25T12:11:19.084Z,95.11
2017-07-25T12:12:19.249Z,96.82
2017-07-25T12:13:19.063Z,96.05
2017-07-25T12:14:19.218Z,96.24
2017-07-25T12:15:19.162Z,96.74
2017-07-25T12:16:19.006Z,96.58
2017-07-25T12:17:19.532Z,96.07
2017-07-25T12:18:19.095Z,95.93
2017-07-25T12:19:19.171Z,94.73
2017-07-25T12:20:19.237Z,95.77
2017-07-25T12:21:18.886Z,94.93
2017-07-25T12:22:18.842Z,94.27
2017-07-25T12:23:18.856Z,94.51
2017-07-25T12:24:18.953Z,94.48
2017-07-25T12:25:18.872Z,95.28
2017-07-25T12:26:19.040Z,95.93
2017-07-25T12:27:18.889Z,96.10
2017-07-25T12:28:18.965Z,95.25
2017-07-25T12:29:19.114Z,94.50
2017-07-25T12:30:19.194Z,97.90
2017-07-25T12:31:19.371Z,95.47
2017-07-25T12:32:19.110Z,94.97
2017-07-25T12:33:19.080Z,96.25
2017-07-25T12:34:19.192Z,97.31
2017-07-25T12:35:19.757Z,96.37
2017-07-25T12:36:19.187Z,96.46
2017-07-25T12:37:19.655Z,95.64
2017-07-25T12:38:19.010Z,95.07
2017-07-25T12:39:19.042Z,96.60
2017-07-25T12:40:18.955Z,95.81
2017-07-25T12:41:18.941Z,96.01
2017-07-25T12:42:19.088Z,95.09
2017-07-25T12:43:19.153Z,97.34
2017-07-25T12:44:19.194Z,97.09
2017-07-25T12:45:19.095Z,96.58
2017-07-25T12:46:18.979Z,95.12
2017-07-25T12:47:19.060Z,94.70
2017-07-25T12:48:19.243Z,92.59
2017-07-25T12:49:18.977Z,95.11
2017-07-25T12:50:19.137Z,97.01
2017-07-25T12:51:19.196Z,95.64